Time;durP1;ratioP1;P1;durP2;ratioP2;P2;SDS_P1;SDS_P2;PMS_P1;PMS_P2;Temp;Humidity;BMP_temperature;BMP_pressure;BME280_temperature;BME280_humidity;BME280_pressure;Samples;Min_cycle;Max_cycle;Signal;HPM_P1;HPM_P2
2022/05/10 00:00:02;;;;;;;;;;;16.70;1.00;;;;;;10249275;28;84848;-49
2022/05/10 00:05:04;;;;;;;;;;;16.60;1.00;;;;;;10249881;28;84996;-48
2022/05/10 00:10:09;;;;;;;;;;;16.40;1.00;;;;;;10267726;28;85658;-49
2022/05/10 00:15:10;;;;;;;;;;;16.20;1.00;;;;;;10289863;28;84831;-47
2022/05/10 00:20:13;;;;;;;;;;;16.00;1.00;;;;;;10213889;28;86974;-48
2022/05/10 00:25:15;;;;;;;;;;;15.90;1.00;;;;;;10237682;28;84134;-48
2022/05/10 00:30:16;;;;;;;;;;;15.90;1.00;;;;;;10247469;28;84769;-50
2022/05/10 00:35:21;;;;;;;;;;;15.80;1.00;;;;;;10248836;28;84243;-48
2022/05/10 00:40:23;;;;;;;;;;;15.80;1.00;;;;;;10248515;28;84492;-48
2022/05/10 00:45:44;;;;;;;;;;;15.80;1.00;;;;;;10248280;28;84922;-47
2022/05/10 00:50:51;;;;;;;;;;;15.60;1.00;;;;;;10216179;28;84834;-49
2022/05/10 00:56:13;;;;;;;;;;;15.60;1.00;;;;;;10249138;28;84018;-48
2022/05/10 01:01:18;;;;;;;;;;;15.50;1.00;;;;;;10246476;28;84104;-48
2022/05/10 01:06:22;;;;;;;;;;;15.40;1.00;;;;;;10247134;28;84176;-48
2022/05/10 01:11:42;;;;;;;;;;;15.40;1.00;;;;;;10248046;28;84717;-48
2022/05/10 01:16:42;;;;;;;;;;;15.40;1.00;;;;;;10247139;28;84838;-49
2022/05/10 01:22:01;;;;;;;;;;;15.30;1.00;;;;;;10244324;28;84939;-48
2022/05/10 01:27:25;;;;;;;;;;;15.30;1.00;;;;;;10269563;28;86776;-47
2022/05/10 01:37:54;;;;;;;;;;;15.10;1.00;;;;;;10252136;28;84894;-48
2022/05/10 01:43:02;;;;;;;;;;;15.00;6.70;;;;;;10246467;28;85069;-51
2022/05/10 01:48:03;;;;;;;;;;;15.00;5.40;;;;;;10229210;28;85151;-49
2022/05/10 01:53:07;;;;;;;;;;;14.90;10.20;;;;;;10259938;28;84179;-47
2022/05/10 01:58:20;;;;;;;;;;;14.90;12.50;;;;;;10259292;28;85009;-48
2022/05/10 02:03:20;;;;;;;;;;;15.00;7.70;;;;;;10260266;28;84134;-51
2022/05/10 02:08:25;;;;;;;;;;;15.00;1.90;;;;;;10258992;28;84063;-50
2022/05/10 02:13:30;;;;;;;;;;;15.00;1.00;;;;;;10258913;28;84147;-51
2022/05/10 02:18:33;;;;;;;;;;;15.00;1.00;;;;;;10261412;28;84939;-54
2022/05/10 02:23:37;;;;;;;;;;;15.00;1.00;;;;;;10298884;28;84048;-49
2022/05/10 02:28:41;;;;;;;;;;;15.10;1.00;;;;;;10298450;28;84113;-48
2022/05/10 02:33:43;;;;;;;;;;;15.10;1.00;;;;;;10296711;28;84041;-49
2022/05/10 02:38:44;;;;;;;;;;;15.10;1.00;;;;;;10280046;28;84744;-48
2022/05/10 02:43:51;;;;;;;;;;;15.10;1.00;;;;;;10296152;28;85080;-49
2022/05/10 02:48:53;;;;;;;;;;;15.20;1.00;;;;;;10262394;28;84166;-46
2022/05/10 02:53:54;;;;;;;;;;;15.20;1.00;;;;;;10240204;28;85068;-48
2022/05/10 02:59:00;;;;;;;;;;;15.20;1.00;;;;;;10253266;28;85877;-51
2022/05/10 03:04:02;;;;;;;;;;;15.20;1.00;;;;;;10241924;28;84143;-46
2022/05/10 03:09:03;;;;;;;;;;;15.20;1.00;;;;;;10252196;28;85169;-48
2022/05/10 03:14:04;;;;;;;;;;;15.20;1.00;;;;;;10249671;28;84152;-51
2022/05/10 03:19:05;;;;;;;;;;;15.10;1.00;;;;;;10243269;28;84383;-47
2022/05/10 03:24:06;;;;;;;;;;;15.10;1.00;;;;;;10283122;28;84979;-50
2022/05/10 03:29:06;;;;;;;;;;;15.00;1.00;;;;;;10275356;28;84317;-47
2022/05/10 03:39:27;;;;;;;;;;;15.10;1.00;;;;;;10282356;28;84268;-48
2022/05/10 03:44:30;;;;;;;;;;;15.00;1.00;;;;;;10249173;28;84151;-46
2022/05/10 03:49:32;;;;;;;;;;;14.90;1.00;;;;;;10248435;28;84843;-46
2022/05/10 03:54:34;;;;;;;;;;;14.80;1.00;;;;;;10232098;28;84682;-52
2022/05/10 03:59:41;;;;;;;;;;;14.80;1.00;;;;;;10242288;22;84021;-57
2022/05/10 04:04:42;;;;;;;;;;;14.70;1.00;;;;;;10209564;28;84082;-58
2022/05/10 04:09:42;;;;;;;;;;;14.80;1.00;;;;;;10238781;28;84962;-56
2022/05/10 04:14:43;;;;;;;;;;;14.90;1.00;;;;;;10248958;28;84164;-58
2022/05/10 04:19:43;;;;;;;;;;;14.90;1.00;;;;;;10232516;28;87341;-61
2022/05/10 04:24:44;;;;;;;;;;;14.90;1.00;;;;;;10231397;28;84164;-57
2022/05/10 04:29:45;;;;;;;;;;;15.00;1.00;;;;;;10226983;28;84575;-56
2022/05/10 04:34:46;;;;;;;;;;;15.10;1.00;;;;;;10211938;28;84862;-55
2022/05/10 04:45:06;;;;;;;;;;;15.30;1.00;;;;;;10226358;28;84262;-57
2022/05/10 04:50:07;;;;;;;;;;;15.50;1.00;;;;;;10213308;28;84317;-58
2022/05/10 04:55:09;;;;;;;;;;;15.50;1.00;;;;;;10209497;28;85956;-58
2022/05/10 05:00:11;;;;;;;;;;;15.70;1.00;;;;;;10211841;28;84225;-57
2022/05/10 05:05:13;;;;;;;;;;;15.70;1.00;;;;;;10228425;28;84129;-58
2022/05/10 05:10:13;;;;;;;;;;;15.80;1.00;;;;;;10223697;28;84280;-60
2022/05/10 05:15:14;;;;;;;;;;;15.80;1.00;;;;;;10206291;28;84272;-61
2022/05/10 05:20:14;;;;;;;;;;;15.90;1.00;;;;;;10213071;28;84284;-54
2022/05/10 05:25:16;;;;;;;;;;;16.00;1.00;;;;;;10225250;28;84302;-61
2022/05/10 05:30:16;;;;;;;;;;;16.10;1.00;;;;;;10226578;28;86445;-60
2022/05/10 05:35:17;;;;;;;;;;;16.10;1.00;;;;;;10188528;28;84348;-60
2022/05/10 05:40:18;;;;;;;;;;;16.20;1.00;;;;;;10224547;28;84338;-57
2022/05/10 05:45:20;;;;;;;;;;;16.20;1.00;;;;;;10192277;28;84937;-58
2022/05/10 05:50:21;;;;;;;;;;;16.30;1.00;;;;;;10223934;28;85224;-58
2022/05/10 05:55:22;;;;;;;;;;;16.50;1.00;;;;;;10207559;28;84073;-60
2022/05/10 06:00:24;;;;;;;;;;;16.70;1.00;;;;;;10194104;28;86001;-52
2022/05/10 06:05:25;;;;;;;;;;;17.00;1.00;;;;;;10188420;28;84190;-53
2022/05/10 06:10:25;;;;;;;;;;;17.20;1.00;;;;;;10204788;28;84298;-50
2022/05/10 06:15:26;;;;;;;;;;;17.40;1.00;;;;;;10186403;28;86880;-58
2022/05/10 06:20:30;;;;;;;;;;;17.70;1.00;;;;;;10197266;28;84225;-58
2022/05/10 06:25:32;;;;;;;;;;;17.80;1.00;;;;;;10164328;28;86041;-57
2022/05/10 06:30:32;;;;;;;;;;;17.80;1.00;;;;;;10200415;28;84061;-52
2022/05/10 06:35:33;;;;;;;;;;;18.20;1.00;;;;;;10204632;28;84149;-57
2022/05/10 06:40:34;;;;;;;;;;;18.50;1.00;;;;;;10215128;28;84974;-56
2022/05/10 06:45:35;;;;;;;;;;;18.80;1.00;;;;;;10209410;28;84190;-55
2022/05/10 06:50:38;;;;;;;;;;;19.00;1.00;;;;;;10195035;28;84287;-53
2022/05/10 06:55:39;;;;;;;;;;;19.10;1.00;;;;;;10211860;28;84140;-56
2022/05/10 07:00:40;;;;;;;;;;;19.30;99.90;;;;;;10195423;28;84866;-54
2022/05/10 07:05:42;;;;;;;;;;;19.30;99.90;;;;;;10220498;28;84330;-54
2022/05/10 07:10:43;;;;;;;;;;;19.30;99.90;;;;;;10223434;28;84115;-57
2022/05/10 07:15:44;;;;;;;;;;;19.70;99.90;;;;;;10212777;28;85075;-56
2022/05/10 07:20:46;;;;;;;;;;;20.10;99.90;;;;;;10210681;28;84878;-55
2022/05/10 07:25:47;;;;;;;;;;;20.40;99.90;;;;;;10211679;28;84884;-56
2022/05/10 07:30:48;;;;;;;;;;;20.70;99.90;;;;;;10209791;28;84914;-52
2022/05/10 07:41:08;;;;;;;;;;;21.10;26.10;;;;;;10210532;28;84214;-53
2022/05/10 07:46:08;;;;;;;;;;;21.30;1.00;;;;;;10210136;28;84069;-52
2022/05/10 07:51:09;;;;;;;;;;;22.10;1.00;;;;;;10208723;28;84260;-54
2022/05/10 07:56:09;;;;;;;;;;;22.70;99.90;;;;;;10190406;28;85181;-56
2022/05/10 08:01:10;;;;;;;;;;;23.00;1.00;;;;;;10208563;28;84732;-56
2022/05/10 08:06:11;;;;;;;;;;;22.80;1.00;;;;;;10209485;28;85316;-56
2022/05/10 08:11:11;;;;;;;;;;;23.50;1.00;;;;;;10208954;28;84939;-54
2022/05/10 08:16:12;;;;;;;;;;;23.90;1.00;;;;;;10209036;28;84040;-55
2022/05/10 08:21:13;;;;;;;;;;;24.20;99.90;;;;;;10208249;28;84309;-52
2022/05/10 08:26:14;;;;;;;;;;;24.80;99.90;;;;;;10208433;28;84938;-51
2022/05/10 08:31:15;;;;;;;;;;;25.50;99.90;;;;;;10208277;28;85032;-53
2022/05/10 08:36:15;;;;;;;;;;;26.10;99.90;;;;;;10208330;28;84877;-54
2022/05/10 08:41:34;;;;;;;;;;;27.00;1.00;;;;;;10207313;28;84083;-58
2022/05/10 08:46:37;;;;;;;;;;;27.40;1.00;;;;;;10207895;28;84288;-56
2022/05/10 08:51:37;;;;;;;;;;;27.70;1.00;;;;;;10208631;28;84183;-53
2022/05/10 08:56:45;;;;;;;;;;;27.40;1.00;;;;;;10188625;28;85913;-55
2022/05/10 09:01:52;;;;;;;;;;;27.60;99.90;;;;;;10205516;28;84796;-55
2022/05/10 09:06:52;;;;;;;;;;;28.70;99.90;;;;;;10206911;28;85418;-56
2022/05/10 09:12:16;;;;;;;;;;;29.60;99.90;;;;;;10206941;28;84586;-56
2022/05/10 09:17:18;;;;;;;;;;;30.00;1.00;;;;;;10195399;28;84153;-56
2022/05/10 09:22:27;;;;;;;;;;;30.80;99.90;;;;;;10206623;28;84874;-55
2022/05/10 09:27:32;;;;;;;;;;;30.90;99.90;;;;;;10205992;28;84800;-57
2022/05/10 09:37:55;;;;;;;;;;;31.10;99.90;;;;;;10206466;28;84825;-55
2022/05/10 09:43:15;;;;;;;;;;;31.30;99.90;;;;;;10205811;28;84212;-57
2022/05/10 09:48:16;;;;;;;;;;;31.10;1.00;;;;;;10205807;28;84854;-60
2022/05/10 09:53:22;;;;;;;;;;;31.90;1.00;;;;;;10205803;28;84931;-56
2022/05/10 09:58:25;;;;;;;;;;;33.10;15.00;;;;;;10222005;22;85967;-52
2022/05/10 10:03:30;;;;;;;;;;;33.20;99.90;;;;;;10327023;28;84961;-57
2022/05/10 10:08:38;;;;;;;;;;;32.50;1.00;;;;;;10326553;28;84300;-57
2022/05/10 10:13:39;;;;;;;;;;;31.40;1.00;;;;;;10331291;28;84902;-57
2022/05/10 10:18:39;;;;;;;;;;;31.80;99.90;;;;;;10333239;28;84210;-57
2022/05/10 10:23:44;;;;;;;;;;;31.80;1.00;;;;;;10315479;28;85041;-57
2022/05/10 10:28:48;;;;;;;;;;;29.80;99.90;;;;;;10333360;28;85023;-56
2022/05/10 10:33:57;;;;;;;;;;;29.40;1.00;;;;;;10333450;28;84027;-56
2022/05/10 10:39:16;;;;;;;;;;;30.00;1.00;;;;;;10333410;28;84275;-56
2022/05/10 10:44:22;;;;;;;;;;;30.30;99.90;;;;;;10332649;28;84601;-57
2022/05/10 10:49:26;;;;;;;;;;;29.80;99.90;;;;;;10315159;28;84187;-55
2022/05/10 10:54:29;;;;;;;;;;;28.60;99.90;;;;;;10332654;28;84194;-57
2022/05/10 10:59:42;;;;;;;;;;;27.60;99.90;;;;;;10331343;28;84922;-55
2022/05/10 11:04:52;;;;;;;;;;;27.20;99.90;;;;;;10330360;28;84967;-55
2022/05/10 11:09:58;;;;;;;;;;;27.00;99.90;;;;;;10330057;28;84330;-54
2022/05/10 11:15:05;;;;;;;;;;;27.00;99.90;;;;;;10330111;28;85401;-56
2022/05/10 11:20:17;;;;;;;;;;;26.90;99.90;;;;;;10329642;28;84305;-55
2022/05/10 11:25:41;;;;;;;;;;;27.00;99.90;;;;;;10328825;28;84949;-54
2022/05/10 11:31:00;;;;;;;;;;;26.90;99.90;;;;;;10318965;28;84217;-55
2022/05/10 11:36:05;;;;;;;;;;;26.30;99.90;;;;;;10311746;28;84963;-55
2022/05/10 11:41:10;;;;;;;;;;;26.20;99.90;;;;;;10329163;28;84780;-55
2022/05/10 11:46:31;;;;;;;;;;;25.90;80.70;;;;;;10329198;28;84858;-54
2022/05/10 11:51:44;;;;;;;;;;;25.70;99.90;;;;;;10328737;28;84928;-56
2022/05/10 11:56:47;;;;;;;;;;;25.90;99.90;;;;;;10329832;28;84220;-57
2022/05/10 12:01:48;;;;;;;;;;;26.20;1.00;;;;;;10292201;28;1080840;-58
2022/05/10 12:06:49;;;;;;;;;;;26.60;43.00;;;;;;10330961;28;85365;-55
2022/05/10 12:11:49;;;;;;;;;;;26.80;92.60;;;;;;10330382;28;84850;-57
2022/05/10 12:22:09;;;;;;;;;;;27.00;1.00;;;;;;10329982;28;84076;-57
2022/05/10 12:27:10;;;;;;;;;;;27.10;1.00;;;;;;10330708;28;84726;-57
2022/05/10 12:32:29;;;;;;;;;;;27.60;1.00;;;;;;10329618;28;85960;-57
2022/05/10 12:37:30;;;;;;;;;;;27.30;1.00;;;;;;10330262;28;84618;-56
2022/05/10 12:42:49;;;;;;;;;;;27.40;1.00;;;;;;10330512;28;84270;-54
2022/05/10 12:48:02;;;;;;;;;;;27.40;1.00;;;;;;10329365;28;84864;-55
2022/05/10 12:53:08;;;;;;;;;;;27.40;1.00;;;;;;10331207;28;84783;-56
2022/05/10 12:58:21;;;;;;;;;;;27.50;1.00;;;;;;10311244;28;86614;-55
2022/05/10 13:03:24;;;;;;;;;;;27.70;1.00;;;;;;10329368;28;84738;-57
2022/05/10 13:08:24;;;;;;;;;;;28.40;1.00;;;;;;10328948;28;84177;-56
2022/05/10 13:13:26;;;;;;;;;;;28.30;1.00;;;;;;10328717;28;84797;-56
2022/05/10 13:18:28;;;;;;;;;;;28.00;1.00;;;;;;10328760;28;84073;-55
2022/05/10 13:23:30;;;;;;;;;;;28.10;1.00;;;;;;10328740;28;84838;-57
2022/05/10 13:28:30;;;;;;;;;;;27.90;1.00;;;;;;10327639;28;84847;-57
2022/05/10 13:33:32;;;;;;;;;;;27.60;1.00;;;;;;10328031;28;84854;-56
2022/05/10 13:38:53;;;;;;;;;;;27.40;1.00;;;;;;10327267;28;85126;-56
2022/05/10 13:43:56;;;;;;;;;;;27.50;1.00;;;;;;10327407;28;84109;-58
2022/05/10 13:49:05;;;;;;;;;;;27.10;1.00;;;;;;10308523;28;86314;-55
2022/05/10 13:54:11;;;;;;;;;;;27.10;1.00;;;;;;10309369;28;84887;-57
2022/05/10 13:59:12;;;;;;;;;;;27.30;1.00;;;;;;10326783;28;85319;-56
2022/05/10 14:04:14;;;;;;;;;;;27.40;1.00;;;;;;10326973;28;84902;-56
2022/05/10 14:09:24;;;;;;;;;;;27.50;1.00;;;;;;10326805;28;84801;-56
2022/05/10 14:14:26;;;;;;;;;;;27.40;1.00;;;;;;10326831;28;84881;-55
2022/05/10 14:19:45;;;;;;;;;;;27.10;1.00;;;;;;10326551;28;84026;-56
2022/05/10 14:24:46;;;;;;;;;;;27.30;1.00;;;;;;10326129;28;84765;-56
2022/05/10 14:29:49;;;;;;;;;;;27.50;1.00;;;;;;10325055;28;84701;-57
2022/05/10 14:34:50;;;;;;;;;;;27.20;1.00;;;;;;10324782;28;84380;-53
2022/05/10 14:39:52;;;;;;;;;;;26.90;1.00;;;;;;10290538;28;85912;-56
2022/05/10 14:44:54;;;;;;;;;;;26.40;1.00;;;;;;10324323;28;84272;-57
2022/05/10 14:49:54;;;;;;;;;;;26.30;1.00;;;;;;10323931;28;84344;-55
2022/05/10 14:54:57;;;;;;;;;;;26.40;1.00;;;;;;10307630;28;84124;-60
2022/05/10 14:59:59;;;;;;;;;;;26.40;1.00;;;;;;10329100;28;84767;-60
2022/05/10 15:05:06;;;;;;;;;;;26.50;1.00;;;;;;10332010;28;84073;-59
2022/05/10 15:10:07;;;;;;;;;;;26.50;1.00;;;;;;10329034;28;84670;-54
2022/05/10 15:15:11;;;;;;;;;;;26.40;1.00;;;;;;10330947;28;84318;-56
2022/05/10 15:20:12;;;;;;;;;;;26.20;1.00;;;;;;10312764;28;85153;-56
2022/05/10 15:25:12;;;;;;;;;;;26.20;1.00;;;;;;10330384;28;84896;-56
2022/05/10 15:30:14;;;;;;;;;;;26.40;1.00;;;;;;10329842;28;85063;-57
2022/05/10 15:35:14;;;;;;;;;;;26.50;1.00;;;;;;10330515;28;84296;-55
2022/05/10 15:40:17;;;;;;;;;;;26.60;1.00;;;;;;10329174;28;84236;-56
2022/05/10 15:45:18;;;;;;;;;;;26.60;1.00;;;;;;10331004;28;84479;-57
2022/05/10 15:50:22;;;;;;;;;;;26.40;1.00;;;;;;10329408;28;85029;-57
2022/05/10 15:55:22;;;;;;;;;;;26.30;1.00;;;;;;10327495;28;84305;-55
2022/05/10 16:00:24;;;;;;;;;;;26.10;1.00;;;;;;10323878;22;84297;-58
2022/05/10 16:05:25;;;;;;;;;;;26.10;1.00;;;;;;10290083;28;84257;-56
2022/05/10 16:10:25;;;;;;;;;;;26.10;1.00;;;;;;10288033;28;84979;-50
2022/05/10 16:15:26;;;;;;;;;;;26.10;1.00;;;;;;10288608;28;84112;-50
2022/05/10 16:20:31;;;;;;;;;;;26.00;1.00;;;;;;10270361;28;84056;-49
2022/05/10 16:25:34;;;;;;;;;;;26.00;1.00;;;;;;10286513;28;83993;-52
2022/05/10 16:30:35;;;;;;;;;;;25.90;1.00;;;;;;10286066;28;84880;-50
2022/05/10 16:35:37;;;;;;;;;;;25.90;1.00;;;;;;10287273;28;86132;-54
2022/05/10 16:40:40;;;;;;;;;;;25.90;1.00;;;;;;10287076;28;84079;-47
2022/05/10 16:45:41;;;;;;;;;;;25.90;1.00;;;;;;10285964;28;84952;-49
2022/05/10 16:50:41;;;;;;;;;;;25.80;1.00;;;;;;10269909;28;86950;-48
2022/05/10 16:55:42;;;;;;;;;;;25.60;8.40;;;;;;10288166;28;84015;-50
2022/05/10 17:00:43;;;;;;;;;;;25.40;26.80;;;;;;10285457;28;84260;-51
2022/05/10 17:05:43;;;;;;;;;;;25.40;53.40;;;;;;10270543;28;84150;-51
2022/05/10 17:10:44;;;;;;;;;;;25.20;74.70;;;;;;10267357;28;84951;-51
2022/05/10 17:15:44;;;;;;;;;;;25.20;99.60;;;;;;10287772;28;84914;-51
2022/05/10 17:20:45;;;;;;;;;;;25.20;99.90;;;;;;10268097;28;85955;-51
2022/05/10 17:25:47;;;;;;;;;;;25.10;99.90;;;;;;10287583;28;84849;-50
2022/05/10 17:30:48;;;;;;;;;;;24.90;99.90;;;;;;10286409;28;85082;-50
2022/05/10 17:35:48;;;;;;;;;;;25.00;99.90;;;;;;10286740;28;84555;-49
2022/05/10 17:40:50;;;;;;;;;;;24.90;99.90;;;;;;10249865;28;85055;-52
2022/05/10 17:45:54;;;;;;;;;;;24.90;99.90;;;;;;10246601;28;84885;-49
2022/05/10 17:51:04;;;;;;;;;;;24.70;99.90;;;;;;10245808;28;85034;-51
2022/05/10 17:56:06;;;;;;;;;;;24.60;1.00;;;;;;10252679;28;84969;-49
2022/05/10 18:01:08;;;;;;;;;;;23.90;99.90;;;;;;10283310;28;84813;-48
2022/05/10 18:06:08;;;;;;;;;;;23.40;99.90;;;;;;10282514;28;84498;-48
2022/05/10 18:11:10;;;;;;;;;;;23.20;1.00;;;;;;10286187;28;84011;-47
2022/05/10 18:16:11;;;;;;;;;;;23.00;1.00;;;;;;10284913;28;84838;-47
2022/05/10 18:21:12;;;;;;;;;;;22.90;99.90;;;;;;10273197;28;84978;-50
2022/05/10 18:26:13;;;;;;;;;;;22.80;1.00;;;;;;10277460;28;85034;-49
2022/05/10 18:31:13;;;;;;;;;;;22.70;99.90;;;;;;10283054;28;84650;-48
2022/05/10 18:36:15;;;;;;;;;;;22.60;99.90;;;;;;10291348;28;84521;-49
2022/05/10 18:41:16;;;;;;;;;;;22.50;1.00;;;;;;10291174;28;84729;-50
2022/05/10 18:46:18;;;;;;;;;;;22.40;1.00;;;;;;10290829;28;84937;-50
2022/05/10 18:51:19;;;;;;;;;;;22.40;34.50;;;;;;10273337;28;84730;-49
2022/05/10 18:56:19;;;;;;;;;;;22.30;99.90;;;;;;10290702;28;85773;-51
2022/05/10 19:01:20;;;;;;;;;;;22.20;1.00;;;;;;10290213;28;84214;-49
2022/05/10 19:06:20;;;;;;;;;;;22.00;1.00;;;;;;10291666;28;84944;-49
2022/05/10 19:11:22;;;;;;;;;;;21.90;99.90;;;;;;10288883;28;84564;-50
2022/05/10 19:16:22;;;;;;;;;;;21.80;99.90;;;;;;10273840;28;84351;-50
2022/05/10 19:21:23;;;;;;;;;;;21.70;1.00;;;;;;10289622;28;84889;-46
2022/05/10 19:26:23;;;;;;;;;;;21.50;1.00;;;;;;10290599;28;84685;-49
2022/05/10 19:31:24;;;;;;;;;;;21.40;1.00;;;;;;10277953;28;84810;-51
2022/05/10 19:36:25;;;;;;;;;;;21.30;1.00;;;;;;10290865;28;84332;-55
2022/05/10 19:41:26;;;;;;;;;;;21.10;1.00;;;;;;10286705;28;84215;-53
2022/05/10 19:46:27;;;;;;;;;;;21.10;1.00;;;;;;10273337;28;84991;-48
2022/05/10 19:51:28;;;;;;;;;;;20.90;1.00;;;;;;10278233;28;84114;-50
2022/05/10 19:56:31;;;;;;;;;;;20.70;1.00;;;;;;10273452;28;84944;-48
2022/05/10 20:06:56;;;;;;;;;;;20.50;99.90;;;;;;10272757;28;85640;-48
2022/05/10 20:11:57;;;;;;;;;;;20.30;99.90;;;;;;10286046;28;84950;-53
2022/05/10 20:16:58;;;;;;;;;;;20.30;1.00;;;;;;10285888;28;84311;-49
2022/05/10 20:21:59;;;;;;;;;;;20.20;1.00;;;;;;10285125;28;86782;-50
2022/05/10 20:27:02;;;;;;;;;;;20.10;1.00;;;;;;10288874;28;84139;-49
2022/05/10 20:32:04;;;;;;;;;;;20.00;1.00;;;;;;10283079;28;84940;-49
2022/05/10 20:37:04;;;;;;;;;;;20.00;1.00;;;;;;10288154;28;84561;-48
2022/05/10 20:42:06;;;;;;;;;;;20.00;1.00;;;;;;10268978;28;84964;-51
2022/05/10 20:47:06;;;;;;;;;;;20.00;1.00;;;;;;10285013;28;84745;-49
2022/05/10 20:52:08;;;;;;;;;;;19.90;1.00;;;;;;10282548;28;84820;-49
2022/05/10 20:57:08;;;;;;;;;;;19.90;1.00;;;;;;10287728;28;84081;-48
2022/05/10 21:02:09;;;;;;;;;;;19.80;1.00;;;;;;10273352;28;84951;-47
2022/05/10 21:12:29;;;;;;;;;;;19.70;99.90;;;;;;10255599;28;84310;-48
2022/05/10 21:17:48;;;;;;;;;;;19.60;99.90;;;;;;10246100;28;84135;-50
2022/05/10 21:23:07;;;;;;;;;;;19.60;1.00;;;;;;10268422;28;84455;-49
2022/05/10 21:28:26;;;;;;;;;;;19.70;99.90;;;;;;10285547;28;84148;-50
2022/05/10 21:33:28;;;;;;;;;;;19.60;1.00;;;;;;10244705;28;85931;-50
2022/05/10 21:38:28;;;;;;;;;;;19.60;1.00;;;;;;10246305;28;85042;-54
2022/05/10 21:43:29;;;;;;;;;;;19.50;1.00;;;;;;10252626;28;86959;-52
2022/05/10 21:48:30;;;;;;;;;;;19.50;1.00;;;;;;10286608;28;84903;-50
2022/05/10 21:53:31;;;;;;;;;;;19.60;99.90;;;;;;10262317;28;84721;-49
2022/05/10 21:58:32;;;;;;;;;;;19.60;9.20;;;;;;10242313;22;84781;-55
2022/05/10 22:03:33;;;;;;;;;;;19.70;1.00;;;;;;10245739;28;84294;-56
2022/05/10 22:08:38;;;;;;;;;;;19.70;58.20;;;;;;10249797;28;84340;-56
2022/05/10 22:13:38;;;;;;;;;;;19.70;99.90;;;;;;10252668;28;84059;-53
2022/05/10 22:18:39;;;;;;;;;;;19.60;99.90;;;;;;10252569;28;84953;-59
2022/05/10 22:23:39;;;;;;;;;;;19.50;1.00;;;;;;10252131;28;84864;-55
2022/05/10 22:28:40;;;;;;;;;;;19.50;1.00;;;;;;10253258;28;84499;-53
2022/05/10 22:33:41;;;;;;;;;;;19.30;1.00;;;;;;10251416;28;85056;-57
2022/05/10 22:38:42;;;;;;;;;;;19.20;1.00;;;;;;10251596;28;84099;-55
2022/05/10 22:43:42;;;;;;;;;;;19.20;99.90;;;;;;10252701;28;84770;-57
2022/05/10 22:48:44;;;;;;;;;;;19.00;98.60;;;;;;10267799;28;85576;-55
2022/05/10 22:53:44;;;;;;;;;;;18.80;99.90;;;;;;10234478;28;85122;-55
2022/05/10 22:58:45;;;;;;;;;;;18.80;99.90;;;;;;10250631;28;84143;-55
2022/05/10 23:03:45;;;;;;;;;;;18.80;1.00;;;;;;10250242;28;84834;-54
2022/05/10 23:08:46;;;;;;;;;;;18.70;1.00;;;;;;10232968;28;85032;-54
2022/05/10 23:13:46;;;;;;;;;;;18.70;1.00;;;;;;10232576;28;86909;-54
2022/05/10 23:18:49;;;;;;;;;;;18.60;99.90;;;;;;10249536;28;84899;-53
2022/05/10 23:23:49;;;;;;;;;;;18.60;99.90;;;;;;10251258;28;84111;-55
2022/05/10 23:28:50;;;;;;;;;;;18.50;99.90;;;;;;10255993;28;83983;-55
2022/05/10 23:33:50;;;;;;;;;;;18.50;1.00;;;;;;10257380;28;84107;-54
2022/05/10 23:38:51;;;;;;;;;;;18.40;1.00;;;;;;10251113;28;84262;-55
2022/05/10 23:44:07;;;;;;;;;;;18.30;99.90;;;;;;10250505;28;84886;-56
2022/05/10 23:49:09;;;;;;;;;;;18.20;99.90;;;;;;10250455;28;84421;-53
2022/05/10 23:54:10;;;;;;;;;;;18.10;99.90;;;;;;10249081;28;84949;-56
2022/05/10 23:59:11;;;;;;;;;;;18.10;1.00;;;;;;10248662;28;84749;-57
